createdAt,value
2016-08-24T00:00:43.534Z,964.77
2016-08-24T00:01:43.528Z,964.77
2016-08-24T00:02:43.531Z,964.76
2016-08-24T00:03:43.571Z,964.77
2016-08-24T00:04:43.542Z,964.8
2016-08-24T00:05:43.507Z,964.74
2016-08-24T00:06:43.498Z,964.77
2016-08-24T00:07:43.517Z,964.75
2016-08-24T00:08:43.503Z,964.73
2016-08-24T00:09:43.500Z,964.77
2016-08-24T00:10:43.507Z,964.78
2016-08-24T00:11:43.603Z,964.75
2016-08-24T00:12:43.491Z,964.8
2016-08-24T00:13:43.479Z,964.77
2016-08-24T00:14:43.469Z,964.75
2016-08-24T00:15:43.467Z,964.74
2016-08-24T00:16:43.458Z,964.79
2016-08-24T00:17:43.468Z,964.75
2016-08-24T00:18:43.457Z,964.79
2016-08-24T00:19:43.459Z,964.76
2016-08-24T00:20:43.456Z,964.8
2016-08-24T00:21:43.454Z,964.82
2016-08-24T00:22:43.496Z,964.78
2016-08-24T00:23:43.515Z,964.8
2016-08-24T00:24:43.524Z,964.78
2016-08-24T00:25:43.448Z,964.79
2016-08-24T00:26:43.459Z,964.8
2016-08-24T00:27:43.421Z,964.77
2016-08-24T00:28:43.408Z,964.81
2016-08-24T00:29:43.413Z,964.76
2016-08-24T00:30:43.416Z,964.77
2016-08-24T00:31:43.402Z,964.76
2016-08-24T00:32:43.401Z,964.79
2016-08-24T00:33:43.393Z,964.76
2016-08-24T00:34:43.414Z,964.73
2016-08-24T00:35:43.402Z,964.73
2016-08-24T00:36:43.377Z,964.75
2016-08-24T00:37:43.376Z,964.75
2016-08-24T00:38:43.367Z,964.73
2016-08-24T00:39:43.374Z,964.76
2016-08-24T00:40:43.361Z,964.75
2016-08-24T00:41:43.357Z,964.74
2016-08-24T00:42:43.351Z,964.73
2016-08-24T00:43:43.353Z,964.72
2016-08-24T00:44:43.347Z,964.71
2016-08-24T00:45:43.343Z,964.73
2016-08-24T00:46:43.339Z,964.74
2016-08-24T00:47:43.337Z,964.75
2016-08-24T00:48:43.332Z,964.74
2016-08-24T00:49:43.321Z,964.76
2016-08-24T00:50:43.327Z,964.71
2016-08-24T00:51:43.317Z,964.7
2016-08-24T00:52:43.308Z,964.71
2016-08-24T00:53:43.307Z,964.7
2016-08-24T00:54:43.325Z,964.73
2016-08-24T00:55:43.359Z,964.69
2016-08-24T00:56:43.320Z,964.7
2016-08-24T00:57:43.288Z,964.64
2016-08-24T00:58:43.290Z,964.64
2016-08-24T00:59:43.284Z,964.62
2016-08-24T01:00:43.275Z,964.61
2016-08-24T01:01:43.274Z,964.65
2016-08-24T01:02:43.271Z,964.65
2016-08-24T01:03:43.264Z,964.64
2016-08-24T01:04:43.257Z,964.62
2016-08-24T01:05:43.254Z,964.61
2016-08-24T01:06:43.252Z,964.63
2016-08-24T01:07:43.238Z,964.6
2016-08-24T01:08:43.238Z,964.63
2016-08-24T01:09:43.340Z,964.58
2016-08-24T01:10:43.253Z,964.56
2016-08-24T01:11:43.240Z,964.53
2016-08-24T01:12:43.247Z,964.52
2016-08-24T01:13:43.273Z,964.53
2016-08-24T01:14:43.260Z,964.55
2016-08-24T01:15:43.215Z,964.57
2016-08-24T01:16:43.212Z,964.54
2016-08-24T01:17:43.201Z,964.53
2016-08-24T01:18:43.201Z,964.52
2016-08-24T01:19:43.191Z,964.53
2016-08-24T01:20:43.193Z,964.51
2016-08-24T01:21:43.190Z,964.56
2016-08-24T01:22:43.187Z,964.54
2016-08-24T01:23:43.171Z,964.56
2016-08-24T01:24:43.178Z,964.58
2016-08-24T01:25:43.172Z,964.56
2016-08-24T01:26:43.156Z,964.6
2016-08-24T01:27:43.154Z,964.59
2016-08-24T01:28:43.148Z,964.62
2016-08-24T01:29:43.148Z,964.61
2016-08-24T01:30:43.147Z,964.61
2016-08-24T01:31:43.134Z,964.63
2016-08-24T01:32:43.135Z,964.63
2016-08-24T01:33:43.127Z,964.63
2016-08-24T01:34:43.119Z,964.6
2016-08-24T01:35:43.125Z,964.63
2016-08-24T01:36:43.119Z,964.64
2016-08-24T01:37:43.269Z,964.63
2016-08-24T01:38:43.126Z,964.61
2016-08-24T01:39:43.169Z,964.59
2016-08-24T01:40:43.094Z,964.6
2016-08-24T01:41:43.087Z,964.63
2016-08-24T01:42:43.096Z,964.61
2016-08-24T01:43:43.077Z,964.62
2016-08-24T01:44:43.141Z,964.64
2016-08-24T01:45:43.085Z,964.65
2016-08-24T01:46:43.165Z,964.61
2016-08-24T01:47:43.076Z,964.61
2016-08-24T01:48:43.058Z,964.64
2016-08-24T01:49:43.057Z,964.59
2016-08-24T01:50:43.087Z,964.67
2016-08-24T01:51:43.095Z,964.71
2016-08-24T01:52:43.036Z,964.66
2016-08-24T01:53:43.039Z,964.7
2016-08-24T01:54:43.026Z,964.66
2016-08-24T01:55:43.031Z,964.67
2016-08-24T01:56:43.027Z,964.67
2016-08-24T01:57:43.020Z,964.68
2016-08-24T01:58:43.012Z,964.67
2016-08-24T01:59:43.088Z,964.67
2016-08-24T02:00:43.052Z,964.71
2016-08-24T02:01:43.007Z,964.7
2016-08-24T02:02:42.995Z,964.67
2016-08-24T02:03:42.985Z,964.67
2016-08-24T02:04:42.993Z,964.65
2016-08-24T02:05:42.996Z,964.6
2016-08-24T02:06:42.976Z,964.6
2016-08-24T02:07:42.973Z,964.58
2016-08-24T02:08:42.994Z,964.59
2016-08-24T02:09:42.964Z,964.59
2016-08-24T02:10:42.964Z,964.59
2016-08-24T02:11:42.953Z,964.55
2016-08-24T02:12:42.956Z,964.56
2016-08-24T02:13:42.951Z,964.53
2016-08-24T02:14:42.938Z,964.54
2016-08-24T02:15:42.929Z,964.54
2016-08-24T02:16:42.939Z,964.54
2016-08-24T02:17:42.929Z,964.56
2016-08-24T02:18:42.922Z,964.58
2016-08-24T02:19:42.913Z,964.52
2016-08-24T02:20:43.176Z,964.5
2016-08-24T02:21:42.977Z,964.53
2016-08-24T02:22:42.914Z,964.54
2016-08-24T02:23:43.130Z,964.52
2016-08-24T02:24:42.891Z,964.52
2016-08-24T02:25:42.915Z,964.52
2016-08-24T02:26:42.897Z,964.49
2016-08-24T02:27:42.871Z,964.47
2016-08-24T02:28:42.899Z,964.48
2016-08-24T02:29:42.881Z,964.48
2016-08-24T02:30:42.889Z,964.48
2016-08-24T02:31:42.930Z,964.43
2016-08-24T02:32:42.906Z,964.41
2016-08-24T02:33:42.854Z,964.43
2016-08-24T02:34:42.851Z,964.44
2016-08-24T02:35:42.852Z,964.48
2016-08-24T02:36:42.842Z,964.41
2016-08-24T02:37:42.851Z,964.43
2016-08-24T02:38:42.840Z,964.38
2016-08-24T02:39:43.134Z,964.38
2016-08-24T02:40:42.843Z,964.42
2016-08-24T02:41:42.811Z,964.38
2016-08-24T02:42:42.818Z,964.38
2016-08-24T02:43:42.834Z,964.41
2016-08-24T02:44:42.836Z,964.41
2016-08-24T02:45:42.870Z,964.4
2016-08-24T02:46:42.796Z,964.37
2016-08-24T02:47:42.790Z,964.4
2016-08-24T02:48:42.791Z,964.4
2016-08-24T02:49:42.825Z,964.39
2016-08-24T02:50:42.805Z,964.38
2016-08-24T02:51:42.775Z,964.34
2016-08-24T02:52:42.771Z,964.32
2016-08-24T02:53:42.754Z,964.38
2016-08-24T02:54:42.744Z,964.38
2016-08-24T02:55:42.771Z,964.36
2016-08-24T02:56:42.838Z,964.34
2016-08-24T02:57:42.739Z,964.35
2016-08-24T02:58:42.737Z,964.35
2016-08-24T02:59:42.723Z,964.36
2016-08-24T03:00:42.743Z,964.37
2016-08-24T03:01:42.748Z,964.36
2016-08-24T03:02:42.716Z,964.36
2016-08-24T03:03:42.709Z,964.33
2016-08-24T03:04:42.763Z,964.34
2016-08-24T03:05:42.701Z,964.36
2016-08-24T03:06:42.737Z,964.33
2016-08-24T03:07:42.972Z,964.33
2016-08-24T03:08:42.838Z,964.34
2016-08-24T03:09:42.708Z,964.34
2016-08-24T03:10:42.696Z,964.34
2016-08-24T03:11:42.700Z,964.32
2016-08-24T03:12:42.707Z,964.34
2016-08-24T03:13:42.815Z,964.37
2016-08-24T03:14:42.661Z,964.37
2016-08-24T03:15:42.645Z,964.33
2016-08-24T03:16:42.640Z,964.38
2016-08-24T03:17:42.636Z,964.37
2016-08-24T03:18:42.735Z,964.4
2016-08-24T03:19:43.141Z,964.38
2016-08-24T03:20:42.678Z,964.37
2016-08-24T03:21:42.623Z,964.41
2016-08-24T03:22:42.620Z,964.42
2016-08-24T03:23:42.816Z,964.44
2016-08-24T03:24:42.605Z,964.39
2016-08-24T03:25:42.596Z,964.4
2016-08-24T03:26:42.621Z,964.43
2016-08-24T03:27:42.643Z,964.4
2016-08-24T03:28:42.595Z,964.38
2016-08-24T03:29:42.613Z,964.38
2016-08-24T03:30:42.697Z,964.41
2016-08-24T03:31:42.647Z,964.44
2016-08-24T03:32:42.572Z,964.42
2016-08-24T03:33:42.566Z,964.45
2016-08-24T03:34:42.632Z,964.42
2016-08-24T03:35:42.564Z,964.42
2016-08-24T03:36:42.556Z,964.4
2016-08-24T03:37:42.534Z,964.43
2016-08-24T03:38:42.549Z,964.36
2016-08-24T03:39:42.576Z,964.4
2016-08-24T03:40:42.666Z,964.39
2016-08-24T03:41:42.608Z,964.45
2016-08-24T03:42:42.722Z,964.42
2016-08-24T03:43:42.591Z,964.42
2016-08-24T03:44:42.511Z,964.44
2016-08-24T03:45:42.768Z,964.41
2016-08-24T03:46:42.514Z,964.48
2016-08-24T03:47:42.489Z,964.45
2016-08-24T03:48:42.539Z,964.48
2016-08-24T03:49:42.570Z,964.44
2016-08-24T03:50:42.597Z,964.45
2016-08-24T03:51:42.563Z,964.49
2016-08-24T03:52:42.746Z,964.48
2016-08-24T03:53:42.691Z,964.48
2016-08-24T03:54:42.457Z,964.52
2016-08-24T03:55:42.449Z,964.5
2016-08-24T03:56:42.561Z,964.5
2016-08-24T03:57:42.502Z,964.48
2016-08-24T03:58:42.442Z,964.48
2016-08-24T03:59:42.435Z,964.52
2016-08-24T04:00:42.430Z,964.49
2016-08-24T04:01:42.427Z,964.55
2016-08-24T04:02:42.438Z,964.53
2016-08-24T04:03:42.492Z,964.53
2016-08-24T04:04:42.465Z,964.52
2016-08-24T04:05:42.392Z,964.51
2016-08-24T04:06:42.387Z,964.51
2016-08-24T04:07:42.390Z,964.49
2016-08-24T04:08:42.389Z,964.51
2016-08-24T04:09:42.375Z,964.49
2016-08-24T04:10:42.430Z,964.49
2016-08-24T04:11:42.632Z,964.45
2016-08-24T04:12:42.373Z,964.48
2016-08-24T04:13:42.381Z,964.48
2016-08-24T04:14:42.352Z,964.47
2016-08-24T04:15:42.353Z,964.44
2016-08-24T04:16:42.338Z,964.43
2016-08-24T04:17:42.337Z,964.42
2016-08-24T04:18:42.335Z,964.37
2016-08-24T04:19:42.325Z,964.38
2016-08-24T04:20:42.320Z,964.39
2016-08-24T04:21:42.312Z,964.39
2016-08-24T04:22:42.345Z,964.42
2016-08-24T04:23:42.307Z,964.38
2016-08-24T04:24:42.327Z,964.39
2016-08-24T04:25:42.301Z,964.43
2016-08-24T04:26:42.323Z,964.41
2016-08-24T04:27:42.303Z,964.41
2016-08-24T04:28:42.285Z,964.44
2016-08-24T04:29:42.294Z,964.39
2016-08-24T04:30:42.285Z,964.4
2016-08-24T04:31:42.317Z,964.41
2016-08-24T04:32:42.299Z,964.42
2016-08-24T04:33:42.272Z,964.42
2016-08-24T04:34:42.486Z,964.4
2016-08-24T04:35:42.264Z,964.4
2016-08-24T04:36:42.244Z,964.41
2016-08-24T04:37:42.250Z,964.45
2016-08-24T04:38:42.232Z,964.43
2016-08-24T04:39:42.237Z,964.45
2016-08-24T04:40:42.238Z,964.46
2016-08-24T04:41:42.255Z,964.45
2016-08-24T04:42:42.222Z,964.46
2016-08-24T04:43:42.217Z,964.46
2016-08-24T04:44:42.201Z,964.5
2016-08-24T04:45:42.192Z,964.53
2016-08-24T04:46:42.206Z,964.53
2016-08-24T04:47:42.273Z,964.49
2016-08-24T04:48:42.355Z,964.49
2016-08-24T04:49:42.197Z,964.5
2016-08-24T04:50:42.164Z,964.49
2016-08-24T04:51:42.170Z,964.5
2016-08-24T04:52:42.172Z,964.5
2016-08-24T04:53:42.154Z,964.53
2016-08-24T04:54:42.205Z,964.49
2016-08-24T04:55:42.152Z,964.53
2016-08-24T04:56:42.146Z,964.49
2016-08-24T04:57:42.132Z,964.49
2016-08-24T04:58:42.163Z,964.49
2016-08-24T04:59:42.138Z,964.52
2016-08-24T05:00:42.189Z,964.49
2016-08-24T05:01:42.142Z,964.51
2016-08-24T05:02:42.112Z,964.52
2016-08-24T05:03:42.215Z,964.54
2016-08-24T05:04:42.107Z,964.54
2016-08-24T05:05:42.116Z,964.54
2016-08-24T05:06:42.105Z,964.54
2016-08-24T05:07:42.083Z,964.54
2016-08-24T05:08:42.085Z,964.51
2016-08-24T05:09:42.139Z,964.54
2016-08-24T05:10:42.103Z,964.53
2016-08-24T05:11:42.072Z,964.52
2016-08-24T05:12:42.067Z,964.51
2016-08-24T05:13:42.078Z,964.54
2016-08-24T05:14:42.061Z,964.59
2016-08-24T05:15:42.064Z,964.57
2016-08-24T05:16:42.035Z,964.56
2016-08-24T05:17:42.031Z,964.58
2016-08-24T05:18:42.051Z,964.66
2016-08-24T05:19:42.017Z,964.66
2016-08-24T05:20:42.063Z,964.67
2016-08-24T05:21:42.027Z,964.66
2016-08-24T05:22:42.044Z,964.62
2016-08-24T05:23:42.014Z,964.63
2016-08-24T05:24:42.006Z,964.65
2016-08-24T05:25:42.046Z,964.63
2016-08-24T05:26:42.003Z,964.66
2016-08-24T05:27:41.981Z,964.66
2016-08-24T05:28:41.983Z,964.67
2016-08-24T05:29:41.977Z,964.61
2016-08-24T05:30:41.973Z,964.64
2016-08-24T05:31:41.962Z,964.64
2016-08-24T05:32:41.968Z,964.63
2016-08-24T05:33:41.952Z,964.63
2016-08-24T05:34:41.956Z,964.67
2016-08-24T05:35:41.957Z,964.67
2016-08-24T05:36:41.947Z,964.67
2016-08-24T05:37:41.938Z,964.61
2016-08-24T05:38:41.929Z,964.65
2016-08-24T05:39:41.924Z,964.63
2016-08-24T05:40:41.922Z,964.64
2016-08-24T05:41:41.926Z,964.59
2016-08-24T05:42:41.924Z,964.58
2016-08-24T05:43:41.911Z,964.63
2016-08-24T05:44:41.912Z,964.62
2016-08-24T05:45:41.895Z,964.57
2016-08-24T05:46:41.891Z,964.58
2016-08-24T05:47:41.913Z,964.59
2016-08-24T05:48:41.905Z,964.59
2016-08-24T05:49:41.893Z,964.56
2016-08-24T05:50:41.876Z,964.57
2016-08-24T05:51:41.905Z,964.58
2016-08-24T05:52:41.890Z,964.59
2016-08-24T05:53:41.872Z,964.57
2016-08-24T05:54:41.866Z,964.55
2016-08-24T05:55:41.855Z,964.53
2016-08-24T05:56:41.854Z,964.58
2016-08-24T05:57:41.844Z,964.55
2016-08-24T05:58:41.839Z,964.56
2016-08-24T05:59:41.843Z,964.52
2016-08-24T06:00:41.835Z,964.52
2016-08-24T06:01:41.840Z,964.49
2016-08-24T06:02:41.838Z,964.48
2016-08-24T06:03:41.821Z,964.49
2016-08-24T06:04:41.829Z,964.49
2016-08-24T06:05:41.817Z,964.5
2016-08-24T06:06:41.808Z,964.52
2016-08-24T06:07:41.828Z,964.5
2016-08-24T06:08:41.798Z,964.5
2016-08-24T06:09:41.801Z,964.51
2016-08-24T06:10:41.785Z,964.54
2016-08-24T06:11:41.795Z,964.55
2016-08-24T06:12:41.781Z,964.56
2016-08-24T06:13:41.773Z,964.57
2016-08-24T06:14:41.826Z,964.57
2016-08-24T06:15:41.773Z,964.57
2016-08-24T06:16:41.776Z,964.58
2016-08-24T06:17:41.759Z,964.58
2016-08-24T06:18:41.756Z,964.6
2016-08-24T06:19:41.764Z,964.59
2016-08-24T06:20:41.745Z,964.6
2016-08-24T06:21:41.746Z,964.63
2016-08-24T06:22:41.743Z,964.61
2016-08-24T06:23:41.748Z,964.64
2016-08-24T06:24:41.739Z,964.65
2016-08-24T06:25:41.765Z,964.67
2016-08-24T06:26:41.732Z,964.65
2016-08-24T06:27:41.721Z,964.65
2016-08-24T06:28:41.717Z,964.63
2016-08-24T06:29:41.719Z,964.65
2016-08-24T06:30:41.715Z,964.63
2016-08-24T06:31:41.704Z,964.63
2016-08-24T06:32:41.706Z,964.64
2016-08-24T06:33:41.696Z,964.64
2016-08-24T06:34:41.702Z,964.71
2016-08-24T06:35:41.701Z,964.68
2016-08-24T06:36:41.713Z,964.68
2016-08-24T06:37:41.685Z,964.7
2016-08-24T06:38:41.682Z,964.67
2016-08-24T06:39:41.677Z,964.68
2016-08-24T06:40:41.672Z,964.67
2016-08-24T06:41:41.673Z,964.67
2016-08-24T06:42:41.666Z,964.68
2016-08-24T06:43:41.674Z,964.66
2016-08-24T06:44:41.662Z,964.7
2016-08-24T06:45:41.674Z,964.68
2016-08-24T06:46:41.681Z,964.68
2016-08-24T06:47:41.656Z,964.67
2016-08-24T06:48:41.653Z,964.67
2016-08-24T06:49:41.674Z,964.7
2016-08-24T06:50:41.638Z,964.68
2016-08-24T06:51:41.634Z,964.67
2016-08-24T06:52:41.634Z,964.68
2016-08-24T06:53:41.635Z,964.69
2016-08-24T06:54:41.632Z,964.7
2016-08-24T06:55:41.625Z,964.72
2016-08-24T06:56:41.622Z,964.72
2016-08-24T06:57:41.621Z,964.7
2016-08-24T06:58:41.621Z,964.73
2016-08-24T06:59:41.623Z,964.72
2016-08-24T07:00:41.608Z,964.7
2016-08-24T07:01:41.607Z,964.68
2016-08-24T07:02:41.610Z,964.69
2016-08-24T07:03:41.612Z,964.71
2016-08-24T07:04:41.602Z,964.67
2016-08-24T07:05:41.616Z,964.68
2016-08-24T07:06:41.607Z,964.69
2016-08-24T07:07:41.607Z,964.66
2016-08-24T07:08:41.603Z,964.74
2016-08-24T07:09:41.595Z,964.76
2016-08-24T07:10:41.597Z,964.77
2016-08-24T07:11:41.605Z,964.65
2016-08-24T07:12:41.598Z,964.63
2016-08-24T07:13:41.593Z,964.59
2016-08-24T07:14:41.596Z,964.6
2016-08-24T07:15:41.594Z,964.55
2016-08-24T07:16:41.600Z,964.57
2016-08-24T07:17:41.599Z,964.66
2016-08-24T07:18:41.598Z,964.64
2016-08-24T07:19:41.593Z,964.65
2016-08-24T07:20:41.588Z,964.64
2016-08-24T07:21:41.591Z,964.62
2016-08-24T07:22:41.593Z,964.66
2016-08-24T07:23:41.589Z,964.66
2016-08-24T07:24:41.588Z,964.7
2016-08-24T07:25:41.626Z,964.67
2016-08-24T07:26:41.601Z,964.71
2016-08-24T07:27:41.588Z,964.7
2016-08-24T07:28:41.604Z,964.68
2016-08-24T07:29:41.594Z,964.72
2016-08-24T07:30:41.587Z,964.71
2016-08-24T07:31:41.589Z,964.69
2016-08-24T07:32:41.600Z,964.72
2016-08-24T07:33:41.599Z,964.72
2016-08-24T07:34:41.598Z,964.72
2016-08-24T07:35:41.593Z,964.74
2016-08-24T07:36:41.617Z,964.74
2016-08-24T07:37:41.588Z,964.73
2016-08-24T07:38:41.588Z,964.76
2016-08-24T07:39:41.592Z,964.76
2016-08-24T07:40:41.603Z,964.77
2016-08-24T07:41:41.619Z,964.76
2016-08-24T07:42:41.598Z,964.77
2016-08-24T07:43:41.599Z,964.78
2016-08-24T07:44:41.591Z,964.78
2016-08-24T07:45:41.594Z,964.76
2016-08-24T07:46:41.606Z,964.78
2016-08-24T07:47:41.605Z,964.7
2016-08-24T07:48:41.600Z,964.69
2016-08-24T07:49:41.600Z,964.72
2016-08-24T07:50:41.595Z,964.71
2016-08-24T07:51:41.599Z,964.68
2016-08-24T07:52:41.594Z,964.71
2016-08-24T07:53:41.598Z,964.68
2016-08-24T07:54:41.606Z,964.65
2016-08-24T07:55:41.603Z,964.67
2016-08-24T07:56:41.608Z,964.65
2016-08-24T07:57:41.605Z,964.69
2016-08-24T07:58:41.598Z,964.66
2016-08-24T07:59:41.613Z,964.62
2016-08-24T08:00:41.608Z,964.65
2016-08-24T08:01:41.606Z,964.62
2016-08-24T08:02:41.608Z,964.6
2016-08-24T08:03:41.607Z,964.61
2016-08-24T08:04:41.613Z,964.61
2016-08-24T08:05:41.610Z,964.63
2016-08-24T08:06:41.607Z,964.61
2016-08-24T08:07:41.609Z,964.62
2016-08-24T08:08:41.622Z,964.59
2016-08-24T08:09:41.618Z,964.62
2016-08-24T08:10:41.617Z,964.56
2016-08-24T08:11:41.619Z,964.62
2016-08-24T08:12:41.622Z,964.6
2016-08-24T08:13:41.622Z,964.57
2016-08-24T08:14:41.630Z,964.56
2016-08-24T08:15:41.613Z,964.53
2016-08-24T08:16:41.629Z,964.59
2016-08-24T08:17:41.619Z,964.57
2016-08-24T08:18:41.631Z,964.53
2016-08-24T08:19:41.620Z,964.57
2016-08-24T08:20:41.632Z,964.54
2016-08-24T08:21:41.621Z,964.56
2016-08-24T08:22:41.624Z,964.55
2016-08-24T08:23:41.626Z,964.53
2016-08-24T08:24:41.625Z,964.49
2016-08-24T08:25:41.627Z,964.5
2016-08-24T08:26:41.627Z,964.47
2016-08-24T08:27:41.628Z,964.51
2016-08-24T08:28:41.640Z,964.48
2016-08-24T08:29:41.690Z,964.49
2016-08-24T08:30:41.640Z,964.52
2016-08-24T08:31:41.634Z,964.49
2016-08-24T08:32:41.633Z,964.54
2016-08-24T08:33:41.638Z,964.53
2016-08-24T08:34:41.644Z,964.52
2016-08-24T08:35:41.645Z,964.56
2016-08-24T08:36:41.646Z,964.56
2016-08-24T08:37:41.644Z,964.57
2016-08-24T08:38:41.645Z,964.47
2016-08-24T08:39:41.643Z,964.54
2016-08-24T08:40:41.645Z,964.53
2016-08-24T08:41:41.665Z,964.56
2016-08-24T08:42:41.655Z,964.52
2016-08-24T08:43:41.655Z,964.54
2016-08-24T08:44:41.658Z,964.54
2016-08-24T08:45:41.653Z,964.53
2016-08-24T08:46:41.662Z,964.52
2016-08-24T08:47:41.659Z,964.5
2016-08-24T08:48:41.656Z,964.52
2016-08-24T08:49:41.662Z,964.51
2016-08-24T08:50:41.669Z,964.55
2016-08-24T08:51:41.678Z,964.52
2016-08-24T08:52:41.669Z,964.57
2016-08-24T08:53:41.674Z,964.51
2016-08-24T08:54:41.666Z,964.5
2016-08-24T08:55:41.668Z,964.51
2016-08-24T08:56:41.683Z,964.48
2016-08-24T08:57:41.675Z,964.47
2016-08-24T08:58:41.672Z,964.48
2016-08-24T08:59:41.681Z,964.49
2016-08-24T09:00:41.685Z,964.48
2016-08-24T09:01:41.680Z,964.52
2016-08-24T09:02:41.678Z,964.5
2016-08-24T09:03:41.689Z,964.5
2016-08-24T09:04:41.693Z,964.48
2016-08-24T09:05:41.690Z,964.49
2016-08-24T09:06:41.697Z,964.46
2016-08-24T09:07:41.694Z,964.44
2016-08-24T09:08:41.700Z,964.46
2016-08-24T09:09:41.699Z,964.46
2016-08-24T09:10:41.703Z,964.43
2016-08-24T09:11:41.707Z,964.46
2016-08-24T09:12:41.702Z,964.42
2016-08-24T09:13:41.697Z,964.42
2016-08-24T09:14:41.700Z,964.46
2016-08-24T09:15:41.702Z,964.43
2016-08-24T09:16:41.701Z,964.45
2016-08-24T09:17:41.717Z,964.45
2016-08-24T09:18:41.709Z,964.46
2016-08-24T09:19:41.712Z,964.44
2016-08-24T09:20:41.712Z,964.49
2016-08-24T09:21:41.716Z,964.51
2016-08-24T09:22:41.722Z,964.46
2016-08-24T09:23:41.721Z,964.48
2016-08-24T09:24:41.719Z,964.53
2016-08-24T09:25:41.724Z,964.53
2016-08-24T09:26:41.734Z,964.5
2016-08-24T09:27:41.730Z,964.46
2016-08-24T09:28:41.737Z,964.43
2016-08-24T09:29:41.886Z,964.41
2016-08-24T09:30:41.728Z,964.43
2016-08-24T09:31:41.730Z,964.45
2016-08-24T09:32:41.768Z,964.41
2016-08-24T09:33:41.739Z,964.46
2016-08-24T09:34:41.745Z,964.39
2016-08-24T09:35:41.747Z,964.38
2016-08-24T09:36:41.758Z,964.39
2016-08-24T09:37:41.756Z,964.37
2016-08-24T09:38:41.748Z,964.43
2016-08-24T09:39:41.748Z,964.37
2016-08-24T09:40:41.761Z,964.4
2016-08-24T09:41:41.757Z,964.36
2016-08-24T09:42:41.753Z,964.4
2016-08-24T09:43:41.762Z,964.45
2016-08-24T09:44:41.764Z,964.44
2016-08-24T09:45:41.766Z,964.4
2016-08-24T09:46:41.766Z,964.41
2016-08-24T09:47:41.771Z,964.42
2016-08-24T09:48:41.785Z,964.4
2016-08-24T09:49:41.780Z,964.4
2016-08-24T09:50:41.768Z,964.38
2016-08-24T09:51:41.779Z,964.37
2016-08-24T09:52:41.776Z,964.38
2016-08-24T09:53:41.773Z,964.38
2016-08-24T09:54:41.781Z,964.4
2016-08-24T09:55:41.799Z,964.38
2016-08-24T09:56:41.806Z,964.37
2016-08-24T09:57:41.793Z,964.35
2016-08-24T09:58:41.794Z,964.34
2016-08-24T09:59:41.792Z,964.3
2016-08-24T10:00:41.804Z,964.29
2016-08-24T10:01:41.794Z,964.25
2016-08-24T10:02:41.813Z,964.24
2016-08-24T10:03:41.805Z,964.3
2016-08-24T10:04:41.895Z,964.28
2016-08-24T10:05:41.802Z,964.27
2016-08-24T10:06:41.807Z,964.26
2016-08-24T10:07:41.816Z,964.25
2016-08-24T10:08:41.884Z,964.28
2016-08-24T10:09:41.816Z,964.27
2016-08-24T10:10:41.819Z,964.28
2016-08-24T10:11:41.820Z,964.19
2016-08-24T10:12:41.815Z,964.23
2016-08-24T10:13:41.822Z,964.23
2016-08-24T10:14:41.829Z,964.22
2016-08-24T10:15:41.824Z,964.18
2016-08-24T10:16:41.837Z,964.2
2016-08-24T10:17:41.827Z,964.2
2016-08-24T10:18:41.831Z,964.2
2016-08-24T10:19:41.834Z,964.22
2016-08-24T10:20:41.834Z,964.18
2016-08-24T10:21:41.842Z,964.17
2016-08-24T10:22:41.833Z,964.2
2016-08-24T10:23:41.854Z,964.18
2016-08-24T10:24:41.847Z,964.16
2016-08-24T10:25:41.849Z,964.17
2016-08-24T10:26:41.853Z,964.16
2016-08-24T10:27:41.859Z,964.08
2016-08-24T10:28:41.859Z,964.08
2016-08-24T10:29:41.907Z,964.09
2016-08-24T10:30:41.863Z,964.1
2016-08-24T10:31:41.868Z,964.05
2016-08-24T10:32:41.876Z,964.06
2016-08-24T10:33:41.877Z,964.05
2016-08-24T10:34:41.875Z,964.04
2016-08-24T10:35:41.868Z,964.02
2016-08-24T10:36:41.869Z,964.01
2016-08-24T10:37:41.869Z,964.01
2016-08-24T10:38:41.881Z,964.03
2016-08-24T10:39:41.873Z,964.04
2016-08-24T10:40:41.872Z,964
2016-08-24T10:41:41.876Z,963.98
2016-08-24T10:42:41.885Z,964.01
2016-08-24T10:43:41.885Z,963.98
2016-08-24T10:44:41.892Z,963.99
2016-08-24T10:45:41.894Z,964
2016-08-24T10:46:41.905Z,964.01
2016-08-24T10:47:41.903Z,964
2016-08-24T10:48:41.902Z,963.96
2016-08-24T10:49:41.913Z,963.94
2016-08-24T10:50:41.908Z,963.9
2016-08-24T10:51:41.915Z,963.95
2016-08-24T10:52:41.901Z,963.91
2016-08-24T10:53:41.900Z,963.92
2016-08-24T10:54:41.906Z,963.9
2016-08-24T10:55:41.917Z,963.9
2016-08-24T10:56:41.909Z,963.87
2016-08-24T10:57:41.927Z,963.86
2016-08-24T10:58:41.917Z,963.88
2016-08-24T10:59:41.932Z,963.87
2016-08-24T11:00:41.925Z,963.84
2016-08-24T11:01:41.925Z,963.83
2016-08-24T11:02:41.922Z,963.84
2016-08-24T11:03:41.924Z,963.85
2016-08-24T11:04:41.937Z,963.85
2016-08-24T11:05:41.938Z,963.8
2016-08-24T11:06:41.935Z,963.84
2016-08-24T11:07:41.936Z,963.81
2016-08-24T11:08:41.936Z,963.8
2016-08-24T11:09:41.945Z,963.77
2016-08-24T11:10:41.952Z,963.74
2016-08-24T11:11:41.947Z,963.74
2016-08-24T11:12:41.955Z,963.73
2016-08-24T11:13:41.949Z,963.74
2016-08-24T11:14:41.949Z,963.74
2016-08-24T11:15:41.955Z,963.75
2016-08-24T11:16:41.958Z,963.74
2016-08-24T11:17:41.965Z,963.74
2016-08-24T11:18:41.962Z,963.74
2016-08-24T11:19:41.968Z,963.78
2016-08-24T11:20:41.976Z,963.71
2016-08-24T11:21:41.973Z,963.74
2016-08-24T11:22:41.974Z,963.69
2016-08-24T11:23:41.973Z,963.71
2016-08-24T11:24:41.983Z,963.72
2016-08-24T11:25:41.977Z,963.68
2016-08-24T11:26:41.982Z,963.67
2016-08-24T11:27:41.997Z,963.68
2016-08-24T11:28:41.990Z,963.69
2016-08-24T11:29:42.038Z,963.66
2016-08-24T11:30:41.994Z,963.68
2016-08-24T11:31:41.993Z,963.67
2016-08-24T11:32:42.003Z,963.67
2016-08-24T11:33:42.010Z,963.67
2016-08-24T11:34:42.004Z,963.65
2016-08-24T11:35:42.008Z,963.66
2016-08-24T11:36:42.003Z,963.61
2016-08-24T11:37:42.004Z,963.58
2016-08-24T11:38:42.015Z,963.61
2016-08-24T11:39:42.025Z,963.59
2016-08-24T11:40:42.018Z,963.6
2016-08-24T11:41:42.033Z,963.6
2016-08-24T11:42:42.036Z,963.58
2016-08-24T11:43:42.026Z,963.58
2016-08-24T11:44:42.028Z,963.61
2016-08-24T11:45:42.046Z,963.58
2016-08-24T11:46:42.034Z,963.6
2016-08-24T11:47:42.035Z,963.6
2016-08-24T11:48:42.056Z,963.58
2016-08-24T11:49:42.046Z,963.58
2016-08-24T11:50:42.056Z,963.65
2016-08-24T11:51:42.048Z,963.6
2016-08-24T11:52:42.053Z,963.63
2016-08-24T11:53:42.057Z,963.61
2016-08-24T11:54:42.053Z,963.57
2016-08-24T11:55:42.061Z,963.54
2016-08-24T11:56:42.071Z,963.54
2016-08-24T11:57:42.068Z,963.56
2016-08-24T11:58:42.101Z,963.54
2016-08-24T11:59:42.071Z,963.55
2016-08-24T12:00:42.069Z,963.55
2016-08-24T12:01:42.078Z,963.53
2016-08-24T12:02:42.080Z,963.56
2016-08-24T12:03:42.107Z,963.53
2016-08-24T12:04:42.126Z,963.5
2016-08-24T12:05:42.089Z,963.51
2016-08-24T12:06:42.084Z,963.51
2016-08-24T12:07:42.093Z,963.5
2016-08-24T12:08:42.098Z,963.52
2016-08-24T12:09:42.106Z,963.5
2016-08-24T12:10:42.103Z,963.46
2016-08-24T12:11:42.114Z,963.5
2016-08-24T12:12:42.112Z,963.47
2016-08-24T12:13:42.122Z,963.49
2016-08-24T12:14:42.111Z,963.48
2016-08-24T12:15:42.115Z,963.45
2016-08-24T12:16:42.117Z,963.47
2016-08-24T12:17:42.121Z,963.43
2016-08-24T12:18:42.120Z,963.38
2016-08-24T12:19:42.120Z,963.43
2016-08-24T12:20:42.136Z,963.42
2016-08-24T12:21:42.153Z,963.37
2016-08-24T12:22:42.148Z,963.39
2016-08-24T12:23:42.145Z,963.34
2016-08-24T12:24:42.148Z,963.32
2016-08-24T12:25:42.146Z,963.33
2016-08-24T12:26:42.140Z,963.3
2016-08-24T12:27:42.154Z,963.31
2016-08-24T12:28:42.148Z,963.32
2016-08-24T12:29:42.204Z,963.3
2016-08-24T12:30:42.163Z,963.26
2016-08-24T12:31:42.158Z,963.29